createdAt,value
2023-04-09T00:02:04.973Z,63.08
2023-04-09T00:04:33.969Z,62.91
2023-04-09T00:07:02.657Z,62.70
2023-04-09T00:09:32.328Z,62.60
2023-04-09T00:12:03.495Z,61.99
2023-04-09T00:14:32.028Z,61.82
2023-04-09T00:17:00.445Z,61.65
2023-04-09T00:19:28.894Z,61.45
2023-04-09T00:21:57.295Z,61.67
2023-04-09T00:24:26.505Z,61.71
2023-04-09T00:26:54.846Z,62.25
2023-04-09T00:29:25.230Z,61.73
2023-04-09T00:31:54.053Z,61.87
2023-04-09T00:34:22.888Z,61.94
2023-04-09T00:36:51.681Z,61.73
2023-04-09T00:39:20.175Z,62.06
2023-04-09T00:41:48.498Z,62.06
2023-04-09T00:44:17.056Z,62.00
2023-04-09T00:46:47.438Z,61.98
2023-04-09T00:49:16.199Z,61.75
2023-04-09T00:51:47.122Z,61.98
2023-04-09T00:54:16.162Z,61.88
2023-04-09T00:56:45.591Z,61.83
2023-04-09T00:59:14.658Z,62.67
2023-04-09T01:01:43.198Z,62.66
2023-04-09T01:04:13.298Z,62.63
2023-04-09T01:06:52.292Z,62.81
2023-04-09T01:09:29.623Z,62.95
2023-04-09T01:12:18.684Z,62.75
2023-04-09T01:14:55.285Z,63.01
2023-04-09T01:17:32.554Z,63.50
2023-04-09T01:20:10.713Z,64.09
2023-04-09T01:22:59.303Z,63.48
2023-04-09T01:25:49.494Z,63.24
2023-04-09T01:28:26.261Z,63.16
2023-04-09T01:31:00.734Z,63.09
2023-04-09T01:33:33.704Z,63.12
2023-04-09T01:36:05.751Z,63.26
2023-04-09T01:38:36.389Z,63.25
2023-04-09T01:41:06.274Z,63.33
2023-04-09T01:43:38.108Z,63.19
2023-04-09T01:46:06.698Z,63.46
2023-04-09T01:48:38.965Z,63.64
2023-04-09T01:51:14.204Z,63.18
2023-04-09T01:53:47.957Z,63.37
2023-04-09T01:56:22.362Z,63.85
2023-04-09T01:58:54.890Z,63.82
2023-04-09T02:01:37.531Z,63.30
2023-04-09T02:04:12.512Z,63.29
2023-04-09T02:06:46.418Z,63.16
2023-04-09T02:09:18.107Z,63.06
2023-04-09T02:11:49.867Z,62.80
2023-04-09T02:14:22.251Z,63.02
2023-04-09T02:16:50.975Z,63.30
2023-04-09T02:19:21.487Z,63.23
2023-04-09T02:21:57.662Z,63.50
2023-04-09T02:24:26.247Z,63.77
2023-04-09T02:26:55.045Z,63.92
2023-04-09T02:29:25.089Z,63.66
2023-04-09T02:31:53.720Z,63.63
2023-04-09T02:34:22.555Z,62.93
2023-04-09T02:36:51.170Z,63.05
2023-04-09T02:39:20.956Z,63.16
2023-04-09T02:41:54.273Z,63.03
2023-04-09T02:44:28.102Z,63.14
2023-04-09T02:47:09.544Z,63.38
2023-04-09T02:49:39.819Z,63.67
2023-04-09T02:52:12.209Z,63.51
2023-04-09T02:54:40.852Z,63.87
2023-04-09T02:57:09.185Z,63.68
2023-04-09T02:59:39.173Z,64.12
2023-04-09T03:02:08.286Z,64.05
2023-04-09T03:04:37.004Z,63.95
2023-04-09T03:07:06.132Z,64.07
2023-04-09T03:09:34.897Z,64.81
2023-04-09T03:12:03.585Z,64.13
2023-04-09T03:14:33.318Z,64.33
2023-04-09T03:17:05.011Z,64.20
2023-04-09T03:19:35.814Z,64.41
2023-04-09T03:22:04.462Z,64.28
2023-04-09T03:24:34.077Z,63.87
2023-04-09T03:27:05.968Z,63.97
2023-04-09T03:29:35.567Z,63.84
2023-04-09T03:32:06.138Z,64.02
2023-04-09T03:34:34.691Z,64.01
2023-04-09T03:37:15.339Z,63.76
2023-04-09T03:39:49.678Z,63.86
2023-04-09T03:42:18.517Z,63.67
2023-04-09T03:44:50.519Z,63.82
2023-04-09T03:47:28.505Z,63.37
2023-04-09T03:49:59.889Z,63.85
2023-04-09T03:52:37.412Z,63.58
2023-04-09T03:55:12.045Z,63.24
2023-04-09T03:57:40.661Z,63.25
2023-04-09T04:00:21.927Z,63.09
2023-04-09T04:03:15.034Z,63.16
2023-04-09T04:06:06.770Z,63.51
2023-04-09T04:08:54.593Z,64.02
2023-04-09T04:11:29.829Z,63.75
2023-04-09T04:13:58.951Z,63.69
2023-04-09T04:16:29.025Z,63.83
2023-04-09T04:19:01.209Z,63.64
2023-04-09T04:21:43.501Z,63.77
2023-04-09T04:24:19.837Z,63.88
2023-04-09T04:26:49.019Z,63.94
2023-04-09T04:29:21.661Z,63.71
2023-04-09T04:31:55.873Z,63.65
2023-04-09T04:34:49.858Z,63.48
2023-04-09T04:37:25.564Z,63.87
2023-04-09T04:39:58.783Z,63.65
2023-04-09T04:42:27.590Z,63.90
2023-04-09T04:44:56.547Z,64.25
2023-04-09T04:47:47.839Z,63.91
2023-04-09T04:50:25.819Z,64.17
2023-04-09T04:53:07.801Z,63.91
2023-04-09T04:58:32.478Z,63.98
2023-04-09T05:01:02.557Z,63.59
2023-04-09T05:03:30.763Z,64.08
2023-04-09T05:06:15.737Z,63.54
2023-04-09T05:08:46.453Z,63.46
2023-04-09T05:11:16.878Z,63.55
2023-04-09T05:13:48.289Z,64.02
2023-04-09T05:16:20.764Z,63.26
2023-04-09T05:18:55.063Z,64.09
2023-04-09T05:21:27.392Z,63.84
2023-04-09T05:23:57.642Z,64.02
2023-04-09T05:26:26.848Z,63.51
2023-04-09T05:28:58.615Z,63.66
2023-04-09T05:31:27.630Z,63.69
2023-04-09T05:34:21.899Z,63.50
2023-04-09T05:36:55.543Z,63.70
2023-04-09T05:39:24.942Z,63.71
2023-04-09T05:41:54.001Z,63.77
2023-04-09T05:44:51.236Z,63.92
2023-04-09T05:47:21.839Z,64.41
2023-04-09T05:50:00.055Z,64.47
2023-04-09T05:52:30.219Z,64.75
2023-04-09T05:54:59.053Z,64.65
2023-04-09T05:57:39.319Z,64.52
2023-04-09T06:00:09.633Z,64.80
2023-04-09T06:02:48.932Z,64.61
2023-04-09T06:05:17.281Z,64.35
2023-04-09T06:07:46.706Z,63.99
2023-04-09T06:10:15.539Z,64.34
2023-04-09T06:12:43.667Z,64.66
2023-04-09T06:15:12.551Z,64.85
2023-04-09T06:17:40.892Z,65.14
2023-04-09T06:20:10.610Z,65.25
2023-04-09T06:22:38.806Z,65.96
2023-04-09T06:25:09.439Z,65.95
2023-04-09T06:27:37.611Z,65.66
2023-04-09T06:30:07.225Z,65.38
2023-04-09T06:32:46.794Z,65.11
2023-04-09T06:35:19.484Z,65.79
2023-04-09T06:37:47.583Z,65.86
2023-04-09T06:40:17.201Z,65.81
2023-04-09T06:42:45.277Z,66.98
2023-04-09T06:45:28.251Z,66.54
2023-04-09T06:47:56.958Z,67.20
2023-04-09T06:50:25.219Z,67.37
2023-04-09T06:52:53.692Z,67.55
2023-04-09T06:55:23.144Z,67.48
2023-04-09T06:57:51.166Z,67.28
2023-04-09T07:00:19.496Z,67.25
2023-04-09T07:02:47.736Z,67.63
2023-04-09T07:05:16.195Z,68.01
2023-04-09T07:07:44.227Z,68.40
2023-04-09T07:10:12.530Z,67.58
2023-04-09T07:12:42.117Z,67.58
2023-04-09T07:15:10.717Z,66.67
2023-04-09T07:17:38.854Z,66.60
2023-04-09T07:20:08.332Z,66.61
2023-04-09T07:22:37.311Z,66.72
2023-04-09T07:25:06.430Z,66.35
2023-04-09T07:27:34.553Z,65.88
2023-04-09T07:30:10.601Z,65.46
2023-04-09T07:32:39.007Z,65.06
2023-04-09T07:35:10.559Z,65.15
2023-04-09T07:37:38.848Z,64.81
2023-04-09T07:40:08.877Z,64.55
2023-04-09T07:42:39.009Z,63.81
2023-04-09T07:45:09.907Z,63.53
2023-04-09T07:47:38.951Z,62.98
2023-04-09T07:50:08.981Z,62.36
2023-04-09T07:52:37.235Z,61.94
2023-04-09T07:55:06.550Z,61.83
2023-04-09T07:57:34.670Z,61.62
2023-04-09T08:00:03.561Z,61.03
2023-04-09T08:02:42.740Z,60.50
2023-04-09T08:05:11.764Z,59.08
2023-04-09T08:07:39.836Z,58.69
2023-04-09T08:10:13.972Z,57.99
2023-04-09T08:12:42.121Z,56.55
2023-04-09T08:15:11.891Z,56.71
2023-04-09T08:17:39.948Z,57.77
2023-04-09T08:20:11.285Z,59.16
2023-04-09T08:22:41.142Z,59.20
2023-04-09T08:25:09.797Z,58.52
2023-04-09T08:27:39.772Z,58.07
2023-04-09T08:30:09.931Z,58.57
2023-04-09T08:32:37.919Z,59.70
2023-04-09T08:35:11.651Z,58.78
2023-04-09T08:37:41.065Z,59.03
2023-04-09T08:40:11.601Z,57.32
2023-04-09T08:42:45.852Z,56.87
2023-04-09T08:45:14.590Z,56.22
2023-04-09T08:47:44.547Z,55.72
2023-04-09T08:50:12.634Z,55.59
2023-04-09T08:52:42.601Z,55.45
2023-04-09T08:55:13.420Z,54.41
2023-04-09T08:57:42.496Z,54.69
2023-04-09T09:00:12.261Z,51.44
2023-04-09T09:03:00.756Z,50.64
2023-04-09T09:05:37.818Z,50.89
2023-04-09T09:08:09.669Z,50.76
2023-04-09T09:10:40.659Z,50.71
2023-04-09T09:13:24.376Z,50.91
2023-04-09T09:15:55.273Z,51.23
2023-04-09T09:18:39.416Z,50.36
2023-04-09T09:21:14.901Z,49.79
2023-04-09T09:23:45.009Z,49.41
2023-04-09T09:26:16.519Z,49.21
2023-04-09T09:28:45.417Z,50.21
2023-04-09T09:31:14.320Z,50.74
2023-04-09T09:33:42.566Z,51.06
2023-04-09T09:36:11.309Z,50.67
2023-04-09T09:38:56.156Z,50.42
2023-04-09T09:41:25.872Z,51.33
2023-04-09T09:43:54.034Z,50.32
2023-04-09T09:46:23.929Z,50.24
2023-04-09T09:48:52.232Z,49.14
2023-04-09T09:51:28.757Z,50.42
2023-04-09T09:53:59.140Z,50.71
2023-04-09T09:56:33.400Z,49.63
2023-04-09T09:59:11.817Z,50.04
2023-04-09T10:01:41.497Z,48.52
2023-04-09T10:04:14.391Z,47.68
2023-04-09T10:06:46.027Z,48.24
2023-04-09T10:09:15.576Z,48.25
2023-04-09T10:11:45.696Z,46.68
2023-04-09T10:14:14.634Z,46.25
2023-04-09T10:16:42.971Z,45.58
2023-04-09T10:19:14.160Z,43.98
2023-04-09T10:21:53.360Z,41.93
2023-04-09T10:24:23.896Z,41.27
2023-04-09T10:26:55.700Z,40.48
2023-04-09T10:29:29.871Z,41.83
2023-04-09T10:32:07.320Z,43.55
2023-04-09T10:35:05.702Z,38.16
2023-04-09T10:37:33.803Z,39.52
2023-04-09T10:40:05.737Z,39.45
2023-04-09T10:42:38.861Z,39.08
2023-04-09T10:45:09.872Z,39.45
2023-04-09T10:47:40.545Z,39.59
2023-04-09T10:50:24.070Z,39.95
2023-04-09T10:53:19.110Z,40.37
2023-04-09T10:55:51.991Z,39.41
2023-04-09T10:58:20.847Z,39.48
2023-04-09T11:00:51.681Z,38.97
2023-04-09T11:03:25.800Z,38.95
2023-04-09T11:06:00.956Z,38.71
2023-04-09T11:08:34.037Z,37.72
2023-04-09T11:11:04.109Z,37.72
2023-04-09T11:13:34.134Z,38.19
2023-04-09T11:16:04.171Z,38.40
2023-04-09T11:18:34.487Z,38.34
2023-04-09T11:21:04.206Z,39.09
2023-04-09T11:23:34.006Z,38.39
2023-04-09T11:26:03.437Z,38.16
2023-04-09T11:28:31.505Z,38.44
2023-04-09T11:30:59.562Z,38.88
2023-04-09T11:33:34.096Z,38.78
2023-04-09T11:36:02.697Z,38.97
2023-04-09T11:38:32.729Z,38.88
2023-04-09T11:41:02.579Z,38.08
2023-04-09T11:43:32.227Z,38.08
2023-04-09T11:46:00.913Z,37.62
2023-04-09T11:48:29.012Z,37.58
2023-04-09T11:50:57.312Z,38.36
2023-04-09T11:53:31.066Z,38.65
2023-04-09T11:55:59.199Z,38.02
2023-04-09T11:58:28.277Z,38.20
2023-04-09T12:01:00.117Z,37.82
2023-04-09T12:03:32.820Z,37.68
2023-04-09T12:06:03.646Z,38.68
2023-04-09T12:08:34.458Z,37.58
2023-04-09T12:11:11.249Z,38.78
2023-04-09T12:13:42.880Z,37.28
2023-04-09T12:16:13.104Z,37.15
2023-04-09T12:18:43.924Z,37.57
2023-04-09T12:21:12.128Z,37.45
2023-04-09T12:23:40.778Z,36.90
2023-04-09T12:26:08.897Z,37.66
2023-04-09T12:28:36.951Z,38.36
2023-04-09T12:31:05.079Z,38.10
2023-04-09T12:33:34.526Z,38.02
2023-04-09T12:36:02.670Z,37.45
2023-04-09T12:38:31.074Z,38.08
2023-04-09T12:40:59.113Z,37.65
2023-04-09T12:43:27.128Z,37.96
2023-04-09T12:45:55.145Z,37.62
2023-04-09T12:48:23.282Z,36.74
2023-04-09T12:50:52.675Z,37.66
2023-04-09T12:53:20.722Z,36.69
2023-04-09T12:55:48.754Z,37.34
2023-04-09T12:58:16.806Z,37.88
2023-04-09T13:00:44.936Z,36.45
2023-04-09T13:03:13.430Z,37.14
2023-04-09T13:05:41.835Z,37.13
2023-04-09T13:08:11.317Z,37.00
2023-04-09T13:10:39.737Z,37.49
2023-04-09T13:13:11.977Z,37.43
2023-04-09T13:15:43.154Z,37.04
2023-04-09T13:18:11.402Z,37.64
2023-04-09T13:20:39.557Z,37.15
2023-04-09T13:23:07.661Z,36.91
2023-04-09T13:25:37.051Z,37.59
2023-04-09T13:28:05.404Z,37.33
2023-04-09T13:30:33.603Z,37.28
2023-04-09T13:33:02.462Z,37.96
2023-04-09T13:35:31.596Z,37.85
2023-04-09T13:37:59.716Z,38.92
2023-04-09T13:40:27.977Z,39.23
2023-04-09T13:42:57.344Z,38.83
2023-04-09T13:45:25.417Z,39.19
2023-04-09T13:47:53.947Z,38.89
2023-04-09T13:50:22.325Z,38.66
2023-04-09T13:52:50.375Z,38.49
2023-04-09T13:55:18.582Z,37.62
2023-04-09T13:57:46.636Z,37.75
2023-04-09T14:00:17.322Z,38.04
2023-04-09T14:02:45.753Z,38.38
2023-04-09T14:05:13.988Z,38.84
2023-04-09T14:07:42.037Z,38.68
2023-04-09T14:10:11.580Z,38.74
2023-04-09T14:12:39.639Z,38.12
2023-04-09T14:15:10.130Z,37.95
2023-04-09T14:17:40.688Z,37.32
2023-04-09T14:20:10.007Z,37.12
2023-04-09T14:22:38.118Z,37.32
2023-04-09T14:25:07.618Z,37.57
2023-04-09T14:27:35.674Z,36.82
2023-04-09T14:30:04.277Z,37.34
2023-04-09T14:32:32.390Z,37.21
2023-04-09T14:35:02.928Z,36.72
2023-04-09T14:37:31.170Z,37.17
2023-04-09T14:39:59.279Z,36.92
2023-04-09T14:42:27.424Z,36.59
2023-04-09T14:44:56.051Z,36.17
2023-04-09T14:47:24.279Z,36.49
2023-04-09T14:49:52.326Z,36.41
2023-04-09T14:52:21.830Z,35.74
2023-04-09T14:54:49.872Z,35.79
2023-04-09T14:57:17.938Z,36.22
2023-04-09T14:59:46.173Z,35.84
2023-04-09T15:02:14.333Z,35.99
2023-04-09T15:04:42.637Z,35.65
2023-04-09T15:07:11.000Z,35.93
2023-04-09T15:09:40.614Z,36.13
2023-04-09T15:12:09.582Z,35.86
2023-04-09T15:14:37.682Z,36.20
2023-04-09T15:17:05.810Z,36.53
2023-04-09T15:19:35.092Z,36.18
2023-04-09T15:22:03.496Z,35.96
2023-04-09T15:24:31.523Z,35.54
2023-04-09T15:27:01.208Z,35.98
2023-04-09T15:29:29.204Z,35.62
2023-04-09T15:31:57.406Z,36.11
2023-04-09T15:34:26.104Z,36.68
2023-04-09T15:36:54.212Z,36.56
2023-04-09T15:39:24.408Z,36.95
2023-04-09T15:41:52.418Z,37.20
2023-04-09T15:44:21.887Z,36.83
2023-04-09T15:46:50.122Z,37.44
2023-04-09T15:49:19.395Z,37.46
2023-04-09T15:51:47.618Z,37.35
2023-04-09T15:54:15.766Z,37.13
2023-04-09T15:56:43.828Z,37.08
2023-04-09T15:59:11.901Z,36.85
2023-04-09T16:01:41.419Z,36.53
2023-04-09T16:04:09.554Z,37.17
2023-04-09T16:06:39.534Z,36.83
2023-04-09T16:09:07.588Z,36.59
2023-04-09T16:11:37.421Z,36.63
2023-04-09T16:14:05.723Z,36.52
2023-04-09T16:16:34.964Z,36.82
2023-04-09T16:22:00.711Z,36.98
2023-04-09T16:24:28.871Z,37.17
2023-04-09T16:26:56.921Z,37.30
2023-04-09T16:29:25.605Z,37.37
2023-04-09T16:31:53.769Z,37.28
2023-04-09T16:34:23.214Z,37.03
2023-04-09T16:36:51.552Z,37.00
2023-04-09T16:39:20.320Z,37.32
2023-04-09T16:41:49.318Z,37.35
2023-04-09T16:44:17.343Z,37.43
2023-04-09T16:46:45.401Z,37.73
2023-04-09T16:49:13.611Z,37.02
2023-04-09T16:51:43.027Z,36.59
2023-04-09T16:54:12.688Z,37.21
2023-04-09T16:56:40.846Z,37.15
2023-04-09T16:59:08.946Z,36.94
2023-04-09T17:01:36.973Z,36.88
2023-04-09T17:04:05.167Z,36.80
2023-04-09T17:06:33.383Z,37.08
2023-04-09T17:09:05.217Z,37.66
2023-04-09T17:11:33.529Z,38.02
2023-04-09T17:14:01.567Z,37.84
2023-04-09T17:16:29.772Z,37.59
2023-04-09T17:18:57.841Z,37.89
2023-04-09T17:21:26.346Z,37.73
2023-04-09T17:23:54.413Z,37.54
2023-04-09T17:26:24.700Z,37.56
2023-04-09T17:28:52.945Z,37.82
2023-04-09T17:31:24.153Z,37.62
2023-04-09T17:33:52.860Z,37.69
2023-04-09T17:36:23.747Z,37.45
2023-04-09T17:38:53.243Z,37.84
2023-04-09T17:41:22.780Z,38.19
2023-04-09T17:43:50.784Z,38.01
2023-04-09T17:46:19.326Z,38.07
2023-04-09T17:48:47.509Z,37.64
2023-04-09T17:51:16.467Z,37.96
2023-04-09T17:53:44.559Z,37.83
2023-04-09T17:56:16.751Z,38.36
2023-04-09T17:58:46.500Z,38.82
2023-04-09T18:01:14.678Z,39.07
2023-04-09T18:03:43.184Z,38.98
2023-04-09T18:06:11.677Z,39.15
2023-04-09T18:08:41.621Z,38.89
2023-04-09T18:11:13.192Z,39.33
2023-04-09T18:13:41.860Z,39.99
2023-04-09T18:16:12.467Z,40.19
2023-04-09T18:18:41.270Z,40.82
2023-04-09T18:21:09.815Z,41.64
2023-04-09T18:23:39.518Z,41.64
2023-04-09T18:26:07.706Z,42.13
2023-04-09T18:28:35.868Z,42.63
2023-04-09T18:31:04.152Z,42.44
2023-04-09T18:33:34.190Z,43.05
2023-04-09T18:36:03.226Z,43.25
2023-04-09T18:38:31.636Z,43.75
2023-04-09T18:41:01.146Z,43.82
2023-04-09T18:43:29.197Z,43.86
2023-04-09T18:45:58.327Z,44.27
2023-04-09T18:48:26.840Z,44.45
2023-04-09T18:50:56.408Z,43.70
2023-04-09T18:53:25.057Z,43.53
2023-04-09T18:55:53.151Z,43.66
2023-04-09T18:58:21.459Z,43.66
2023-04-09T19:00:51.411Z,43.07
2023-04-09T19:03:20.131Z,42.59
2023-04-09T19:05:48.562Z,42.41
2023-04-09T19:08:17.915Z,42.28
2023-04-09T19:10:47.488Z,42.29
2023-04-09T19:13:15.602Z,42.84
2023-04-09T19:15:43.646Z,42.37
2023-04-09T19:18:11.684Z,42.74
2023-04-09T19:20:39.703Z,42.10
2023-04-09T19:23:07.703Z,41.89
2023-04-09T19:25:37.127Z,42.75
2023-04-09T19:28:05.889Z,42.36
2023-04-09T19:30:33.975Z,42.19
2023-04-09T19:33:02.041Z,42.48
2023-04-09T19:35:33.244Z,42.84
2023-04-09T19:38:04.152Z,42.62
2023-04-09T19:40:33.024Z,42.62
2023-04-09T19:43:02.579Z,42.55
2023-04-09T19:45:30.866Z,43.01
2023-04-09T19:47:58.993Z,42.84
2023-04-09T19:50:27.337Z,43.10
2023-04-09T19:52:57.501Z,43.15
2023-04-09T19:55:26.032Z,42.85
2023-04-09T19:57:54.151Z,43.95
2023-04-09T20:00:23.664Z,43.35
2023-04-09T20:02:51.841Z,43.69
2023-04-09T20:05:20.978Z,43.30
2023-04-09T20:07:49.337Z,43.58
2023-04-09T20:10:17.803Z,43.54
2023-04-09T20:12:48.886Z,43.50
2023-04-09T20:15:19.940Z,43.78
2023-04-09T20:17:50.758Z,43.63
2023-04-09T20:20:20.882Z,44.33
2023-04-09T20:22:55.700Z,44.49
2023-04-09T20:25:25.323Z,44.26
2023-04-09T20:27:54.679Z,44.24
2023-04-09T20:30:22.874Z,44.03
2023-04-09T20:32:53.171Z,43.79
2023-04-09T20:35:21.563Z,44.57
2023-04-09T20:37:50.022Z,44.54
2023-04-09T20:40:19.478Z,44.51
2023-04-09T20:42:47.469Z,44.19
2023-04-09T20:45:15.704Z,44.51
2023-04-09T20:47:43.768Z,44.21
2023-04-09T20:50:13.510Z,43.99
2023-04-09T20:52:41.821Z,44.37
2023-04-09T20:55:10.487Z,45.11
2023-04-09T20:57:38.544Z,44.95
2023-04-09T21:00:08.653Z,44.32
2023-04-09T21:02:36.836Z,44.63
2023-04-09T21:05:21.333Z,44.41
2023-04-09T21:07:53.191Z,45.41
2023-04-09T21:10:21.354Z,45.73
2023-04-09T21:12:49.427Z,46.20
2023-04-09T21:15:17.662Z,46.80
2023-04-09T21:17:46.389Z,46.99
2023-04-09T21:20:17.473Z,46.96
2023-04-09T21:22:45.719Z,47.24
2023-04-09T21:25:18.398Z,47.01
2023-04-09T21:27:46.724Z,47.48
2023-04-09T21:30:14.761Z,47.20
2023-04-09T21:32:42.843Z,47.14
2023-04-09T21:35:11.123Z,47.20
2023-04-09T21:37:39.297Z,47.28
2023-04-09T21:40:14.067Z,47.67
2023-04-09T21:42:43.766Z,47.15
2023-04-09T21:45:16.928Z,46.97
2023-04-09T21:47:45.466Z,47.31
2023-04-09T21:50:13.681Z,47.17
2023-04-09T21:52:41.879Z,46.85
2023-04-09T21:55:15.895Z,46.45
2023-04-09T21:57:46.056Z,46.42
2023-04-09T22:00:16.283Z,46.70
2023-04-09T22:02:45.080Z,46.47
2023-04-09T22:08:07.128Z,46.90
2023-04-09T22:10:38.282Z,46.77
2023-04-09T22:13:07.964Z,47.25
2023-04-09T22:15:39.253Z,46.74
2023-04-09T22:18:07.322Z,47.30
2023-04-09T22:20:36.723Z,46.91
2023-04-09T22:23:33.400Z,47.25
2023-04-09T22:26:01.988Z,47.01
2023-04-09T22:28:31.423Z,47.18
2023-04-09T22:31:00.268Z,47.40
2023-04-09T22:33:28.797Z,47.15
2023-04-09T22:35:59.326Z,47.39
2023-04-09T22:38:27.758Z,47.65
2023-04-09T22:40:56.005Z,47.53
2023-04-09T22:43:24.240Z,47.30
2023-04-09T22:45:55.895Z,47.24
2023-04-09T22:48:24.562Z,47.62
2023-04-09T22:50:52.639Z,47.41
2023-04-09T22:53:20.800Z,47.66
2023-04-09T22:55:51.709Z,47.83
2023-04-09T22:58:19.991Z,48.13
2023-04-09T23:00:49.595Z,47.76
2023-04-09T23:03:19.254Z,47.73
2023-04-09T23:05:47.585Z,48.12
2023-04-09T23:08:15.743Z,48.08
2023-04-09T23:10:43.744Z,47.93
2023-04-09T23:13:13.868Z,48.44
2023-04-09T23:15:41.976Z,47.91
2023-04-09T23:18:10.394Z,48.74
2023-04-09T23:20:39.800Z,47.89
2023-04-09T23:23:08.523Z,48.36
2023-04-09T23:25:36.532Z,48.21
2023-04-09T23:28:04.616Z,47.91
2023-04-09T23:30:32.966Z,48.29
2023-04-09T23:33:01.094Z,48.92
2023-04-09T23:35:29.200Z,49.38
2023-04-09T23:37:58.767Z,49.43
2023-04-09T23:40:26.794Z,50.18
2023-04-09T23:42:55.753Z,50.19
2023-04-09T23:45:24.284Z,49.92
2023-04-09T23:47:52.798Z,50.80
2023-04-09T23:50:23.069Z,50.82
2023-04-09T23:52:51.500Z,50.96
2023-04-09T23:55:20.905Z,51.04
2023-04-09T23:57:48.987Z,51.24
